sensor_id;sensor_type;location;lat;lon;timestamp;P1;durP1;ratioP1;P2;durP2;ratioP2
69386;SDS011;56575;48.942;8.404;2022-12-18T00:01:34;49.03;;;16.45;;
69386;SDS011;56575;48.942;8.404;2022-12-18T00:04:01;54.63;;;17.67;;
69386;SDS011;56575;48.942;8.404;2022-12-18T00:06:33;55.27;;;18.53;;
69386;SDS011;56575;48.942;8.404;2022-12-18T00:08:59;53.22;;;17.45;;
69386;SDS011;56575;48.942;8.404;2022-12-18T00:11:29;52.72;;;17.38;;
69386;SDS011;56575;48.942;8.404;2022-12-18T00:13:56;45.20;;;17.10;;
69386;SDS011;56575;48.942;8.404;2022-12-18T00:16:23;44.33;;;15.75;;
69386;SDS011;56575;48.942;8.404;2022-12-18T00:18:50;40.60;;;14.40;;
69386;SDS011;56575;48.942;8.404;2022-12-18T00:21:20;41.22;;;14.48;;
69386;SDS011;56575;48.942;8.404;2022-12-18T00:23:47;40.88;;;14.90;;
69386;SDS011;56575;48.942;8.404;2022-12-18T00:26:14;48.85;;;16.77;;
69386;SDS011;56575;48.942;8.404;2022-12-18T00:28:45;44.38;;;15.48;;
69386;SDS011;56575;48.942;8.404;2022-12-18T00:31:12;50.93;;;16.73;;
69386;SDS011;56575;48.942;8.404;2022-12-18T00:33:41;50.05;;;15.85;;
69386;SDS011;56575;48.942;8.404;2022-12-18T00:36:12;51.25;;;17.35;;
69386;SDS011;56575;48.942;8.404;2022-12-18T00:38:42;46.78;;;17.20;;
69386;SDS011;56575;48.942;8.404;2022-12-18T00:41:09;50.03;;;17.20;;
69386;SDS011;56575;48.942;8.404;2022-12-18T00:43:38;52.10;;;17.33;;
69386;SDS011;56575;48.942;8.404;2022-12-18T00:46:04;52.53;;;17.17;;
69386;SDS011;56575;48.942;8.404;2022-12-18T00:48:29;44.80;;;16.07;;
69386;SDS011;56575;48.942;8.404;2022-12-18T00:50:55;51.70;;;17.10;;
69386;SDS011;56575;48.942;8.404;2022-12-18T00:53:21;47.33;;;16.27;;
69386;SDS011;56575;48.942;8.404;2022-12-18T00:55:46;41.90;;;16.55;;
69386;SDS011;56575;48.942;8.404;2022-12-18T00:58:12;48.77;;;15.60;;
69386;SDS011;56575;48.942;8.404;2022-12-18T01:00:39;43.30;;;16.13;;
69386;SDS011;56575;48.942;8.404;2022-12-18T01:03:05;48.20;;;15.87;;
69386;SDS011;56575;48.942;8.404;2022-12-18T01:05:32;47.72;;;15.20;;
69386;SDS011;56575;48.942;8.404;2022-12-18T01:07:58;45.95;;;15.80;;
69386;SDS011;56575;48.942;8.404;2022-12-18T01:10:24;41.13;;;14.35;;
69386;SDS011;56575;48.942;8.404;2022-12-18T01:12:50;48.67;;;16.07;;
69386;SDS011;56575;48.942;8.404;2022-12-18T01:15:17;43.05;;;15.05;;
69386;SDS011;56575;48.942;8.404;2022-12-18T01:17:43;41.22;;;15.50;;
69386;SDS011;56575;48.942;8.404;2022-12-18T01:20:11;45.95;;;15.98;;
69386;SDS011;56575;48.942;8.404;2022-12-18T01:22:37;46.47;;;16.00;;
69386;SDS011;56575;48.942;8.404;2022-12-18T01:25:03;40.97;;;14.40;;
69386;SDS011;56575;48.942;8.404;2022-12-18T01:27:31;40.33;;;14.00;;
69386;SDS011;56575;48.942;8.404;2022-12-18T01:29:58;40.72;;;13.70;;
69386;SDS011;56575;48.942;8.404;2022-12-18T01:32:24;41.40;;;13.77;;
69386;SDS011;56575;48.942;8.404;2022-12-18T01:34:49;47.27;;;15.60;;
69386;SDS011;56575;48.942;8.404;2022-12-18T01:37:14;40.53;;;15.37;;
69386;SDS011;56575;48.942;8.404;2022-12-18T01:39:40;49.43;;;14.83;;
69386;SDS011;56575;48.942;8.404;2022-12-18T01:42:13;41.73;;;14.60;;
69386;SDS011;56575;48.942;8.404;2022-12-18T01:45:00;38.95;;;14.18;;
69386;SDS011;56575;48.942;8.404;2022-12-18T01:50:09;39.90;;;12.67;;
69386;SDS011;56575;48.942;8.404;2022-12-18T01:52:35;41.10;;;13.55;;
69386;SDS011;56575;48.942;8.404;2022-12-18T01:55:05;44.47;;;14.75;;
69386;SDS011;56575;48.942;8.404;2022-12-18T01:57:31;45.90;;;15.20;;
69386;SDS011;56575;48.942;8.404;2022-12-18T01:59:59;44.53;;;14.57;;
69386;SDS011;56575;48.942;8.404;2022-12-18T02:02:28;41.33;;;14.55;;
69386;SDS011;56575;48.942;8.404;2022-12-18T02:04:55;44.58;;;14.88;;
69386;SDS011;56575;48.942;8.404;2022-12-18T02:12:53;51.78;;;17.77;;
69386;SDS011;56575;48.942;8.404;2022-12-18T02:18:27;38.47;;;14.02;;
69386;SDS011;56575;48.942;8.404;2022-12-18T02:21:18;37.10;;;13.00;;
69386;SDS011;56575;48.942;8.404;2022-12-18T02:27:01;47.75;;;15.30;;
69386;SDS011;56575;48.942;8.404;2022-12-18T02:29:38;38.83;;;14.48;;
69386;SDS011;56575;48.942;8.404;2022-12-18T02:32:08;47.65;;;15.15;;
69386;SDS011;56575;48.942;8.404;2022-12-18T02:34:39;44.57;;;15.67;;
69386;SDS011;56575;48.942;8.404;2022-12-18T02:37:07;55.08;;;16.92;;
69386;SDS011;56575;48.942;8.404;2022-12-18T02:39:38;50.45;;;16.90;;
69386;SDS011;56575;48.942;8.404;2022-12-18T02:42:06;46.92;;;16.73;;
69386;SDS011;56575;48.942;8.404;2022-12-18T02:44:35;49.13;;;16.10;;
69386;SDS011;56575;48.942;8.404;2022-12-18T02:47:12;57.83;;;17.23;;
69386;SDS011;56575;48.942;8.404;2022-12-18T02:49:41;53.78;;;17.98;;
69386;SDS011;56575;48.942;8.404;2022-12-18T02:52:24;51.90;;;17.05;;
69386;SDS011;56575;48.942;8.404;2022-12-18T02:58:04;52.97;;;16.98;;
69386;SDS011;56575;48.942;8.404;2022-12-18T03:05:36;57.75;;;18.98;;
69386;SDS011;56575;48.942;8.404;2022-12-18T03:08:16;62.95;;;18.05;;
69386;SDS011;56575;48.942;8.404;2022-12-18T03:10:49;65.72;;;20.33;;
69386;SDS011;56575;48.942;8.404;2022-12-18T03:13:23;57.80;;;19.40;;
69386;SDS011;56575;48.942;8.404;2022-12-18T03:15:56;58.13;;;18.52;;
69386;SDS011;56575;48.942;8.404;2022-12-18T03:18:30;56.33;;;17.92;;
69386;SDS011;56575;48.942;8.404;2022-12-18T03:21:02;55.90;;;18.52;;
69386;SDS011;56575;48.942;8.404;2022-12-18T03:23:33;53.25;;;17.23;;
69386;SDS011;56575;48.942;8.404;2022-12-18T03:26:07;54.27;;;18.27;;
69386;SDS011;56575;48.942;8.404;2022-12-18T03:28:37;58.22;;;17.25;;
69386;SDS011;56575;48.942;8.404;2022-12-18T03:31:07;54.30;;;17.55;;
69386;SDS011;56575;48.942;8.404;2022-12-18T03:36:07;63.25;;;19.90;;
69386;SDS011;56575;48.942;8.404;2022-12-18T03:38:33;58.57;;;17.90;;
69386;SDS011;56575;48.942;8.404;2022-12-18T03:46:09;49.80;;;16.17;;
69386;SDS011;56575;48.942;8.404;2022-12-18T03:48:47;47.50;;;16.25;;
69386;SDS011;56575;48.942;8.404;2022-12-18T03:51:23;53.00;;;16.38;;
69386;SDS011;56575;48.942;8.404;2022-12-18T03:53:57;55.07;;;16.53;;
69386;SDS011;56575;48.942;8.404;2022-12-18T03:56:26;48.72;;;16.08;;
69386;SDS011;56575;48.942;8.404;2022-12-18T03:58:59;48.10;;;16.02;;
69386;SDS011;56575;48.942;8.404;2022-12-18T04:01:35;48.25;;;16.50;;
69386;SDS011;56575;48.942;8.404;2022-12-18T04:04:06;47.95;;;16.90;;
69386;SDS011;56575;48.942;8.404;2022-12-18T04:06:33;53.03;;;17.67;;
69386;SDS011;56575;48.942;8.404;2022-12-18T04:08:59;48.95;;;17.00;;
69386;SDS011;56575;48.942;8.404;2022-12-18T04:11:25;46.35;;;15.35;;
69386;SDS011;56575;48.942;8.404;2022-12-18T04:13:53;50.90;;;16.03;;
69386;SDS011;56575;48.942;8.404;2022-12-18T04:16:20;47.10;;;15.48;;
69386;SDS011;56575;48.942;8.404;2022-12-18T04:18:45;44.53;;;15.50;;
69386;SDS011;56575;48.942;8.404;2022-12-18T04:21:11;46.00;;;14.87;;
69386;SDS011;56575;48.942;8.404;2022-12-18T04:23:36;39.67;;;14.13;;
69386;SDS011;56575;48.942;8.404;2022-12-18T04:26:01;45.70;;;15.37;;
69386;SDS011;56575;48.942;8.404;2022-12-18T04:28:27;39.33;;;13.70;;
69386;SDS011;56575;48.942;8.404;2022-12-18T04:30:52;42.13;;;13.97;;
69386;SDS011;56575;48.942;8.404;2022-12-18T04:33:19;48.28;;;15.88;;
69386;SDS011;56575;48.942;8.404;2022-12-18T04:35:45;45.30;;;14.32;;
69386;SDS011;56575;48.942;8.404;2022-12-18T04:38:11;41.92;;;14.57;;
69386;SDS011;56575;48.942;8.404;2022-12-18T04:40:37;49.63;;;14.73;;
69386;SDS011;56575;48.942;8.404;2022-12-18T04:43:04;54.67;;;15.90;;
69386;SDS011;56575;48.942;8.404;2022-12-18T04:45:30;52.20;;;16.00;;
69386;SDS011;56575;48.942;8.404;2022-12-18T04:47:59;49.80;;;15.45;;
69386;SDS011;56575;48.942;8.404;2022-12-18T04:50:26;47.20;;;15.10;;
69386;SDS011;56575;48.942;8.404;2022-12-18T04:52:52;51.43;;;16.50;;
69386;SDS011;56575;48.942;8.404;2022-12-18T04:55:18;51.05;;;16.20;;
69386;SDS011;56575;48.942;8.404;2022-12-18T04:57:43;55.80;;;17.47;;
69386;SDS011;56575;48.942;8.404;2022-12-18T05:00:09;52.03;;;16.05;;
69386;SDS011;56575;48.942;8.404;2022-12-18T05:02:35;59.30;;;16.03;;
69386;SDS011;56575;48.942;8.404;2022-12-18T05:05:00;59.47;;;17.40;;
69386;SDS011;56575;48.942;8.404;2022-12-18T05:07:25;63.57;;;16.87;;
69386;SDS011;56575;48.942;8.404;2022-12-18T05:09:51;49.07;;;16.03;;
69386;SDS011;56575;48.942;8.404;2022-12-18T05:12:17;52.50;;;16.88;;
69386;SDS011;56575;48.942;8.404;2022-12-18T05:14:43;53.07;;;16.33;;
69386;SDS011;56575;48.942;8.404;2022-12-18T05:17:09;51.72;;;17.55;;
69386;SDS011;56575;48.942;8.404;2022-12-18T05:19:34;54.07;;;17.90;;
69386;SDS011;56575;48.942;8.404;2022-12-18T05:21:59;50.77;;;17.47;;
69386;SDS011;56575;48.942;8.404;2022-12-18T05:24:26;52.28;;;17.85;;
69386;SDS011;56575;48.942;8.404;2022-12-18T05:26:51;52.77;;;17.17;;
69386;SDS011;56575;48.942;8.404;2022-12-18T05:29:17;52.33;;;17.43;;
69386;SDS011;56575;48.942;8.404;2022-12-18T05:31:42;54.70;;;17.20;;
69386;SDS011;56575;48.942;8.404;2022-12-18T05:34:08;59.63;;;20.07;;
69386;SDS011;56575;48.942;8.404;2022-12-18T05:36:33;53.87;;;17.13;;
69386;SDS011;56575;48.942;8.404;2022-12-18T05:38:59;49.03;;;16.83;;
69386;SDS011;56575;48.942;8.404;2022-12-18T05:41:25;56.30;;;18.27;;
69386;SDS011;56575;48.942;8.404;2022-12-18T05:43:51;57.73;;;18.70;;
69386;SDS011;56575;48.942;8.404;2022-12-18T05:46:17;54.83;;;18.00;;
69386;SDS011;56575;48.942;8.404;2022-12-18T05:48:43;51.80;;;18.20;;
69386;SDS011;56575;48.942;8.404;2022-12-18T05:51:14;54.00;;;17.60;;
69386;SDS011;56575;48.942;8.404;2022-12-18T05:53:41;51.63;;;18.77;;
69386;SDS011;56575;48.942;8.404;2022-12-18T05:56:08;42.10;;;15.02;;
69386;SDS011;56575;48.942;8.404;2022-12-18T05:58:36;45.60;;;15.43;;
69386;SDS011;56575;48.942;8.404;2022-12-18T06:03:38;41.17;;;14.33;;
69386;SDS011;56575;48.942;8.404;2022-12-18T06:06:11;44.33;;;14.45;;
69386;SDS011;56575;48.942;8.404;2022-12-18T06:08:42;42.17;;;14.68;;
69386;SDS011;56575;48.942;8.404;2022-12-18T06:11:07;42.00;;;14.67;;
69386;SDS011;56575;48.942;8.404;2022-12-18T06:13:33;43.20;;;14.60;;
69386;SDS011;56575;48.942;8.404;2022-12-18T06:16:01;40.60;;;13.23;;
69386;SDS011;56575;48.942;8.404;2022-12-18T06:18:27;38.15;;;12.70;;
69386;SDS011;56575;48.942;8.404;2022-12-18T06:20:56;37.07;;;12.87;;
69386;SDS011;56575;48.942;8.404;2022-12-18T06:23:22;34.17;;;13.13;;
69386;SDS011;56575;48.942;8.404;2022-12-18T06:25:47;33.70;;;11.98;;
69386;SDS011;56575;48.942;8.404;2022-12-18T06:28:14;33.75;;;11.98;;
69386;SDS011;56575;48.942;8.404;2022-12-18T06:30:39;33.53;;;12.07;;
69386;SDS011;56575;48.942;8.404;2022-12-18T06:33:04;32.57;;;12.00;;
69386;SDS011;56575;48.942;8.404;2022-12-18T06:35:31;35.45;;;11.85;;
69386;SDS011;56575;48.942;8.404;2022-12-18T06:37:57;36.85;;;12.43;;
69386;SDS011;56575;48.942;8.404;2022-12-18T06:40:22;38.30;;;12.43;;
69386;SDS011;56575;48.942;8.404;2022-12-18T06:42:48;40.17;;;13.90;;
69386;SDS011;56575;48.942;8.404;2022-12-18T06:45:13;44.93;;;13.87;;
69386;SDS011;56575;48.942;8.404;2022-12-18T06:47:39;41.23;;;14.27;;
69386;SDS011;56575;48.942;8.404;2022-12-18T06:50:04;44.73;;;14.00;;
69386;SDS011;56575;48.942;8.404;2022-12-18T06:52:31;40.10;;;14.02;;
69386;SDS011;56575;48.942;8.404;2022-12-18T06:54:57;43.73;;;15.20;;
69386;SDS011;56575;48.942;8.404;2022-12-18T06:57:22;44.20;;;14.90;;
69386;SDS011;56575;48.942;8.404;2022-12-18T06:59:47;46.38;;;14.77;;
69386;SDS011;56575;48.942;8.404;2022-12-18T07:02:13;42.30;;;16.47;;
69386;SDS011;56575;48.942;8.404;2022-12-18T07:04:39;48.73;;;16.20;;
69386;SDS011;56575;48.942;8.404;2022-12-18T07:07:04;40.20;;;14.88;;
69386;SDS011;56575;48.942;8.404;2022-12-18T07:09:29;49.83;;;14.93;;
69386;SDS011;56575;48.942;8.404;2022-12-18T07:11:55;51.70;;;17.10;;
69386;SDS011;56575;48.942;8.404;2022-12-18T07:14:20;48.27;;;15.70;;
69386;SDS011;56575;48.942;8.404;2022-12-18T07:16:45;44.77;;;14.47;;
69386;SDS011;56575;48.942;8.404;2022-12-18T07:19:11;40.73;;;13.77;;
69386;SDS011;56575;48.942;8.404;2022-12-18T07:21:36;37.72;;;12.20;;
69386;SDS011;56575;48.942;8.404;2022-12-18T07:24:01;39.33;;;12.93;;
69386;SDS011;56575;48.942;8.404;2022-12-18T07:26:27;30.00;;;12.63;;
69386;SDS011;56575;48.942;8.404;2022-12-18T07:28:54;35.37;;;14.43;;
69386;SDS011;56575;48.942;8.404;2022-12-18T07:31:21;32.33;;;12.20;;
69386;SDS011;56575;48.942;8.404;2022-12-18T07:33:47;34.55;;;12.90;;
69386;SDS011;56575;48.942;8.404;2022-12-18T07:36:14;34.90;;;12.20;;
69386;SDS011;56575;48.942;8.404;2022-12-18T07:38:40;34.17;;;11.82;;
69386;SDS011;56575;48.942;8.404;2022-12-18T07:41:07;36.43;;;12.67;;
69386;SDS011;56575;48.942;8.404;2022-12-18T07:43:38;39.17;;;12.35;;
69386;SDS011;56575;48.942;8.404;2022-12-18T07:46:04;34.08;;;13.45;;
69386;SDS011;56575;48.942;8.404;2022-12-18T07:48:31;36.70;;;13.30;;
69386;SDS011;56575;48.942;8.404;2022-12-18T07:51:00;40.10;;;15.67;;
69386;SDS011;56575;48.942;8.404;2022-12-18T07:53:26;41.85;;;15.07;;
69386;SDS011;56575;48.942;8.404;2022-12-18T07:55:59;35.28;;;13.25;;
69386;SDS011;56575;48.942;8.404;2022-12-18T07:58:27;29.85;;;12.15;;
69386;SDS011;56575;48.942;8.404;2022-12-18T08:00:53;33.83;;;12.13;;
69386;SDS011;56575;48.942;8.404;2022-12-18T08:03:18;33.80;;;12.32;;
69386;SDS011;56575;48.942;8.404;2022-12-18T08:05:44;34.33;;;13.03;;
69386;SDS011;56575;48.942;8.404;2022-12-18T08:08:10;43.67;;;14.63;;
69386;SDS011;56575;48.942;8.404;2022-12-18T08:10:35;38.17;;;13.47;;
69386;SDS011;56575;48.942;8.404;2022-12-18T08:13:00;39.00;;;13.70;;
69386;SDS011;56575;48.942;8.404;2022-12-18T08:15:26;34.37;;;11.57;;
69386;SDS011;56575;48.942;8.404;2022-12-18T08:17:51;38.10;;;13.90;;
69386;SDS011;56575;48.942;8.404;2022-12-18T08:20:16;35.70;;;13.38;;
69386;SDS011;56575;48.942;8.404;2022-12-18T08:22:43;41.00;;;14.07;;
69386;SDS011;56575;48.942;8.404;2022-12-18T08:25:09;42.03;;;13.98;;
69386;SDS011;56575;48.942;8.404;2022-12-18T08:27:35;38.58;;;12.18;;
69386;SDS011;56575;48.942;8.404;2022-12-18T08:30:00;41.47;;;12.73;;
69386;SDS011;56575;48.942;8.404;2022-12-18T08:32:26;39.00;;;13.13;;
69386;SDS011;56575;48.942;8.404;2022-12-18T08:34:52;40.58;;;13.40;;
69386;SDS011;56575;48.942;8.404;2022-12-18T08:37:17;41.37;;;14.33;;
69386;SDS011;56575;48.942;8.404;2022-12-18T08:39:43;43.03;;;15.43;;
69386;SDS011;56575;48.942;8.404;2022-12-18T08:42:10;45.67;;;14.63;;
69386;SDS011;56575;48.942;8.404;2022-12-18T08:44:56;42.58;;;15.95;;
69386;SDS011;56575;48.942;8.404;2022-12-18T08:47:22;50.60;;;16.70;;
69386;SDS011;56575;48.942;8.404;2022-12-18T08:49:47;52.20;;;15.33;;
69386;SDS011;56575;48.942;8.404;2022-12-18T08:52:13;47.53;;;15.57;;
69386;SDS011;56575;48.942;8.404;2022-12-18T08:54:39;47.20;;;16.88;;
69386;SDS011;56575;48.942;8.404;2022-12-18T08:57:04;52.60;;;17.57;;
69386;SDS011;56575;48.942;8.404;2022-12-18T08:59:29;54.83;;;17.43;;
69386;SDS011;56575;48.942;8.404;2022-12-18T09:01:55;51.05;;;16.25;;
69386;SDS011;56575;48.942;8.404;2022-12-18T09:04:20;57.53;;;16.80;;
69386;SDS011;56575;48.942;8.404;2022-12-18T09:06:46;55.90;;;18.03;;
69386;SDS011;56575;48.942;8.404;2022-12-18T09:09:12;55.88;;;18.00;;
69386;SDS011;56575;48.942;8.404;2022-12-18T09:11:38;55.53;;;17.60;;
69386;SDS011;56575;48.942;8.404;2022-12-18T09:14:03;54.47;;;18.45;;
69386;SDS011;56575;48.942;8.404;2022-12-18T09:16:29;53.57;;;20.47;;
69386;SDS011;56575;48.942;8.404;2022-12-18T09:18:56;70.65;;;26.83;;
69386;SDS011;56575;48.942;8.404;2022-12-18T09:21:25;63.10;;;23.80;;
69386;SDS011;56575;48.942;8.404;2022-12-18T09:23:51;48.55;;;17.23;;
69386;SDS011;56575;48.942;8.404;2022-12-18T09:26:18;56.47;;;19.45;;
69386;SDS011;56575;48.942;8.404;2022-12-18T09:28:44;51.20;;;16.77;;
69386;SDS011;56575;48.942;8.404;2022-12-18T09:31:10;53.30;;;17.50;;
69386;SDS011;56575;48.942;8.404;2022-12-18T09:33:40;51.72;;;17.13;;
69386;SDS011;56575;48.942;8.404;2022-12-18T09:36:07;51.95;;;16.23;;
69386;SDS011;56575;48.942;8.404;2022-12-18T09:38:34;54.58;;;17.55;;
69386;SDS011;56575;48.942;8.404;2022-12-18T09:41:03;62.75;;;19.48;;
69386;SDS011;56575;48.942;8.404;2022-12-18T09:43:43;57.53;;;22.93;;
69386;SDS011;56575;48.942;8.404;2022-12-18T09:46:15;53.05;;;19.63;;
69386;SDS011;56575;48.942;8.404;2022-12-18T09:48:46;55.80;;;18.10;;
69386;SDS011;56575;48.942;8.404;2022-12-18T09:53:57;50.83;;;17.55;;
69386;SDS011;56575;48.942;8.404;2022-12-18T09:56:26;58.67;;;19.13;;
69386;SDS011;56575;48.942;8.404;2022-12-18T10:01:23;52.90;;;17.83;;
69386;SDS011;56575;48.942;8.404;2022-12-18T10:03:50;53.53;;;19.13;;
69386;SDS011;56575;48.942;8.404;2022-12-18T10:06:36;52.75;;;18.23;;
69386;SDS011;56575;48.942;8.404;2022-12-18T10:09:10;53.47;;;18.87;;
69386;SDS011;56575;48.942;8.404;2022-12-18T10:14:40;52.05;;;17.45;;
69386;SDS011;56575;48.942;8.404;2022-12-18T10:20:02;53.45;;;17.73;;
69386;SDS011;56575;48.942;8.404;2022-12-18T10:22:43;58.43;;;18.63;;
69386;SDS011;56575;48.942;8.404;2022-12-18T10:27:47;56.70;;;18.33;;
69386;SDS011;56575;48.942;8.404;2022-12-18T10:30:18;52.78;;;19.23;;
69386;SDS011;56575;48.942;8.404;2022-12-18T10:32:45;52.95;;;18.73;;
69386;SDS011;56575;48.942;8.404;2022-12-18T10:35:25;55.63;;;18.03;;
69386;SDS011;56575;48.942;8.404;2022-12-18T10:40:52;52.20;;;18.35;;
69386;SDS011;56575;48.942;8.404;2022-12-18T10:43:29;54.70;;;17.73;;
69386;SDS011;56575;48.942;8.404;2022-12-18T10:46:00;52.97;;;18.75;;
69386;SDS011;56575;48.942;8.404;2022-12-18T10:48:32;52.37;;;17.87;;
69386;SDS011;56575;48.942;8.404;2022-12-18T10:51:00;56.33;;;18.55;;
69386;SDS011;56575;48.942;8.404;2022-12-18T10:53:27;55.33;;;19.40;;
69386;SDS011;56575;48.942;8.404;2022-12-18T10:55:55;55.53;;;18.85;;
69386;SDS011;56575;48.942;8.404;2022-12-18T10:58:29;60.30;;;20.92;;
69386;SDS011;56575;48.942;8.404;2022-12-18T11:04:18;53.50;;;17.85;;
69386;SDS011;56575;48.942;8.404;2022-12-18T11:06:18;57.73;;;18.53;;
69386;SDS011;56575;48.942;8.404;2022-12-18T11:11:47;51.65;;;18.20;;
69386;SDS011;56575;48.942;8.404;2022-12-18T11:14:21;56.28;;;18.05;;
69386;SDS011;56575;48.942;8.404;2022-12-18T11:16:52;56.95;;;19.77;;
69386;SDS011;56575;48.942;8.404;2022-12-18T11:21:54;55.17;;;19.45;;
69386;SDS011;56575;48.942;8.404;2022-12-18T11:24:27;51.45;;;20.33;;
69386;SDS011;56575;48.942;8.404;2022-12-18T11:27:03;56.28;;;18.48;;
69386;SDS011;56575;48.942;8.404;2022-12-18T11:29:37;56.50;;;19.73;;
69386;SDS011;56575;48.942;8.404;2022-12-18T11:35:27;50.55;;;18.10;;
69386;SDS011;56575;48.942;8.404;2022-12-18T11:43:39;58.97;;;19.20;;
69386;SDS011;56575;48.942;8.404;2022-12-18T11:46:12;61.73;;;18.87;;
69386;SDS011;56575;48.942;8.404;2022-12-18T11:48:50;58.35;;;19.27;;
69386;SDS011;56575;48.942;8.404;2022-12-18T11:51:42;63.90;;;19.55;;
69386;SDS011;56575;48.942;8.404;2022-12-18T11:54:13;61.60;;;20.25;;
69386;SDS011;56575;48.942;8.404;2022-12-18T11:56:45;65.97;;;20.45;;
69386;SDS011;56575;48.942;8.404;2022-12-18T11:59:25;64.00;;;20.93;;
69386;SDS011;56575;48.942;8.404;2022-12-18T12:18:22;57.70;;;20.42;;
69386;SDS011;56575;48.942;8.404;2022-12-18T12:20:53;56.75;;;20.23;;
69386;SDS011;56575;48.942;8.404;2022-12-18T12:26:10;54.50;;;19.63;;
69386;SDS011;56575;48.942;8.404;2022-12-18T12:39:42;52.63;;;19.57;;
69386;SDS011;56575;48.942;8.404;2022-12-18T12:42:19;58.53;;;21.15;;
69386;SDS011;56575;48.942;8.404;2022-12-18T12:45:14;52.53;;;20.73;;
69386;SDS011;56575;48.942;8.404;2022-12-18T12:47:45;55.08;;;20.95;;
69386;SDS011;56575;48.942;8.404;2022-12-18T12:50:14;58.88;;;21.55;;
69386;SDS011;56575;48.942;8.404;2022-12-18T12:52:46;50.80;;;20.27;;
69386;SDS011;56575;48.942;8.404;2022-12-18T12:55:19;50.95;;;20.33;;
69386;SDS011;56575;48.942;8.404;2022-12-18T13:00:53;50.30;;;19.77;;
69386;SDS011;56575;48.942;8.404;2022-12-18T13:03:30;52.20;;;19.38;;
69386;SDS011;56575;48.942;8.404;2022-12-18T13:09:10;53.90;;;20.83;;
69386;SDS011;56575;48.942;8.404;2022-12-18T13:11:40;56.88;;;20.80;;
69386;SDS011;56575;48.942;8.404;2022-12-18T13:22:59;58.35;;;21.02;;
69386;SDS011;56575;48.942;8.404;2022-12-18T13:28:07;56.03;;;20.80;;
69386;SDS011;56575;48.942;8.404;2022-12-18T13:30:49;55.53;;;20.45;;
69386;SDS011;56575;48.942;8.404;2022-12-18T13:40:57;55.58;;;21.17;;
69386;SDS011;56575;48.942;8.404;2022-12-18T13:51:46;61.45;;;21.17;;
69386;SDS011;56575;48.942;8.404;2022-12-18T13:56:45;60.42;;;21.85;;
69386;SDS011;56575;48.942;8.404;2022-12-18T14:01:55;63.85;;;22.27;;
69386;SDS011;56575;48.942;8.404;2022-12-18T14:04:32;57.25;;;21.70;;
69386;SDS011;56575;48.942;8.404;2022-12-18T14:09:30;55.72;;;22.27;;
69386;SDS011;56575;48.942;8.404;2022-12-18T14:12:00;57.40;;;22.20;;
69386;SDS011;56575;48.942;8.404;2022-12-18T14:14:46;60.20;;;23.05;;
69386;SDS011;56575;48.942;8.404;2022-12-18T14:17:13;60.85;;;21.90;;
69386;SDS011;56575;48.942;8.404;2022-12-18T14:19:46;64.88;;;22.85;;
69386;SDS011;56575;48.942;8.404;2022-12-18T14:22:18;59.25;;;22.02;;
69386;SDS011;56575;48.942;8.404;2022-12-18T14:24:45;63.77;;;22.77;;
69386;SDS011;56575;48.942;8.404;2022-12-18T14:27:21;55.30;;;21.83;;
69386;SDS011;56575;48.942;8.404;2022-12-18T14:29:49;56.78;;;21.02;;
69386;SDS011;56575;48.942;8.404;2022-12-18T14:32:16;61.57;;;23.40;;
69386;SDS011;56575;48.942;8.404;2022-12-18T14:34:51;61.53;;;23.10;;
69386;SDS011;56575;48.942;8.404;2022-12-18T14:37:25;59.28;;;22.55;;
69386;SDS011;56575;48.942;8.404;2022-12-18T14:40:04;65.32;;;24.95;;
69386;SDS011;56575;48.942;8.404;2022-12-18T14:42:30;61.63;;;23.33;;
69386;SDS011;56575;48.942;8.404;2022-12-18T14:47:59;61.58;;;22.85;;
69386;SDS011;56575;48.942;8.404;2022-12-18T14:50:26;63.53;;;23.37;;
69386;SDS011;56575;48.942;8.404;2022-12-18T14:52:51;64.47;;;23.30;;
69386;SDS011;56575;48.942;8.404;2022-12-18T14:55:17;62.17;;;22.60;;
69386;SDS011;56575;48.942;8.404;2022-12-18T14:57:44;55.50;;;21.88;;
69386;SDS011;56575;48.942;8.404;2022-12-18T15:00:21;54.28;;;21.95;;
69386;SDS011;56575;48.942;8.404;2022-12-18T15:02:49;68.35;;;24.23;;
69386;SDS011;56575;48.942;8.404;2022-12-18T15:07:51;62.55;;;23.95;;
69386;SDS011;56575;48.942;8.404;2022-12-18T15:10:19;65.85;;;23.67;;
69386;SDS011;56575;48.942;8.404;2022-12-18T15:13:06;66.45;;;22.63;;
69386;SDS011;56575;48.942;8.404;2022-12-18T15:20:38;61.33;;;22.80;;
69386;SDS011;56575;48.942;8.404;2022-12-18T15:26:10;67.93;;;23.85;;
69386;SDS011;56575;48.942;8.404;2022-12-18T15:34:13;67.00;;;25.42;;
69386;SDS011;56575;48.942;8.404;2022-12-18T15:36:45;65.00;;;23.25;;
69386;SDS011;56575;48.942;8.404;2022-12-18T15:39:11;64.47;;;23.67;;
69386;SDS011;56575;48.942;8.404;2022-12-18T15:41:37;64.00;;;24.40;;
69386;SDS011;56575;48.942;8.404;2022-12-18T15:44:03;63.07;;;23.17;;
69386;SDS011;56575;48.942;8.404;2022-12-18T15:46:49;64.95;;;24.65;;
69386;SDS011;56575;48.942;8.404;2022-12-18T15:49:14;57.30;;;22.60;;
69386;SDS011;56575;48.942;8.404;2022-12-18T15:51:40;65.43;;;25.20;;
69386;SDS011;56575;48.942;8.404;2022-12-18T15:54:06;64.78;;;23.90;;
69386;SDS011;56575;48.942;8.404;2022-12-18T15:56:36;63.40;;;23.73;;
69386;SDS011;56575;48.942;8.404;2022-12-18T15:59:21;63.50;;;24.40;;
69386;SDS011;56575;48.942;8.404;2022-12-18T16:01:47;71.37;;;25.07;;
69386;SDS011;56575;48.942;8.404;2022-12-18T16:04:15;65.17;;;25.50;;
69386;SDS011;56575;48.942;8.404;2022-12-18T16:06:42;70.97;;;24.92;;
69386;SDS011;56575;48.942;8.404;2022-12-18T16:09:08;67.70;;;24.90;;
69386;SDS011;56575;48.942;8.404;2022-12-18T16:11:34;68.43;;;24.37;;
69386;SDS011;56575;48.942;8.404;2022-12-18T16:16:44;72.18;;;26.10;;
69386;SDS011;56575;48.942;8.404;2022-12-18T16:19:10;76.60;;;26.25;;
69386;SDS011;56575;48.942;8.404;2022-12-18T16:21:35;75.10;;;25.73;;
69386;SDS011;56575;48.942;8.404;2022-12-18T16:24:00;77.80;;;26.57;;
69386;SDS011;56575;48.942;8.404;2022-12-18T16:26:26;83.30;;;27.33;;
69386;SDS011;56575;48.942;8.404;2022-12-18T16:28:52;80.07;;;27.93;;
69386;SDS011;56575;48.942;8.404;2022-12-18T16:31:18;73.50;;;27.40;;
69386;SDS011;56575;48.942;8.404;2022-12-18T16:33:44;81.10;;;29.15;;
69386;SDS011;56575;48.942;8.404;2022-12-18T16:36:09;75.93;;;28.13;;
69386;SDS011;56575;48.942;8.404;2022-12-18T16:38:35;76.37;;;27.13;;
69386;SDS011;56575;48.942;8.404;2022-12-18T16:41:00;82.20;;;27.77;;
69386;SDS011;56575;48.942;8.404;2022-12-18T16:43:44;68.70;;;25.80;;
69386;SDS011;56575;48.942;8.404;2022-12-18T16:46:09;76.22;;;27.95;;
69386;SDS011;56575;48.942;8.404;2022-12-18T16:48:35;72.20;;;26.90;;
69386;SDS011;56575;48.942;8.404;2022-12-18T16:51:01;77.93;;;28.57;;
69386;SDS011;56575;48.942;8.404;2022-12-18T16:53:27;71.20;;;26.55;;
69386;SDS011;56575;48.942;8.404;2022-12-18T16:55:56;79.53;;;27.13;;
69386;SDS011;56575;48.942;8.404;2022-12-18T16:58:21;73.13;;;25.80;;
69386;SDS011;56575;48.942;8.404;2022-12-18T17:00:47;67.70;;;24.07;;
69386;SDS011;56575;48.942;8.404;2022-12-18T17:03:12;73.63;;;24.40;;
69386;SDS011;56575;48.942;8.404;2022-12-18T17:05:38;71.57;;;25.83;;
69386;SDS011;56575;48.942;8.404;2022-12-18T17:08:03;68.97;;;24.65;;
69386;SDS011;56575;48.942;8.404;2022-12-18T17:10:29;75.07;;;24.70;;